Terminal Aerodrome Forecast
Issued by NWS Louisville, KY

Home | Current Version | Previous Version | Text Only | Print | Product List | Glossary On
Versions: 1 2 3 4 5 6 7 8 9 10 11 12 13 14 15 16 17 18 19 20 21 22 23 24 25
000
FTUS43 KLMK 151200 AAA
TAFSDF
TAF AMD
KSDF 151209Z 1512/1618 34010KT P6SM VCSH BKN015 OVC025
     FM151400 33013KT P6SM BKN026 BKN035
     FM151700 33015G21KT P6SM BKN040
     FM152300 VRB04KT P6SM SKC=

USA.gov is the U.S. government's official web portal to all federal, state and local government web resources and services.